Mc Entire JNGB Airport
KMMT : rendu visible

Aérodrome :











RETROUVEZ-NOUS SUR...

 
LOGIN :

S'inscrire | Disclaimer

   EN    FR    IT 

 









Légende :    VFR   VFR Marginal   IFR   IFR Intensif   IFR Très Intensif
Visi : 
Plafond : 
>= 8 km
>= 3000ft
5 à 8 km
1000 à 3000 ft
1500m à 5 km
500 à 1000 ft
800 à 1500m
200 à 500 ft
< 800m
< 200 ft
Symboles :   Orages  Brouillard  Fortes neiges  Fortes précipitations  Vent > 20 kt






- Altitude de l'aérodrome : 254 ft


KMMT - Mc Entire JNGB

DERNIER METAR :
  • 230056Z 36004KT 10SM SCT190 05/M09 A3035 RMK AO2A SLP283 T00471088 $

METARs EXPIRÉS :
  • 222356Z 33006KT 10SM SCT200 04/M08 A3034 RMK AO2A SLPNO T00431084 10107 20043 53016 $
  • 222256Z 01003KT 10SM SCT200 07/M09 A3031 RMK AO2A SLPNO T00721088 $

TAF TAF KMMT
Valide du 23 à 00h jusqu'au 24 à 06h UTC


230000Z 2300/2406 03009KT 9999 FEW020 SCT200 QNH3025INS
BECMG 2312/2313 02009KT 9999 SCT020 BKN200 QNH3034INS
BECMG 2314/2315 05012KT 9999 BKN025 OVC150 QNH3024INS
BECMG 2400/2401 06006KT 9999 VCSH SCT003 BKN010 OVC025 QNH3018INS TX15/2321Z TN01/2310Z



MET'MAP, la Météo Aéronautique d'un coup d'oeil ! - Copyright ORBIFLY Décembre 2007 - Disclaimer

ORBIFLY MET'MAP TEAM :

Programmation & Développement : Alexandra Zaïnal
Sur une idée originale de : Baudouin d'Aumeries
Assistance à la programmation : Marc-Olivier Méhu
Soutien technique & logistique : Manuel Goepfert

Contact : metmap@orbifly.com




SOURCES & CREDITS :

   NOAA       Earth
Advisory